createdAt,value
2022-08-29T00:00:26.003Z,16.22
2022-08-29T00:03:00.188Z,16.18
2022-08-29T00:05:32.828Z,16.06
2022-08-29T00:08:02.729Z,16.05
2022-08-29T00:10:37.132Z,16.03
2022-08-29T00:13:08.366Z,16.00
2022-08-29T00:15:44.842Z,16.04
2022-08-29T00:18:14.412Z,15.96
2022-08-29T00:20:43.475Z,15.92
2022-08-29T00:23:12.438Z,15.93
2022-08-29T00:25:41.012Z,15.93
2022-08-29T00:28:11.089Z,15.92
2022-08-29T00:30:39.666Z,15.83
2022-08-29T00:33:08.626Z,15.75
2022-08-29T00:35:39.444Z,15.70
2022-08-29T00:38:10.689Z,15.66
2022-08-29T00:40:42.275Z,15.62
2022-08-29T00:43:14.814Z,15.65
2022-08-29T00:45:50.571Z,15.65
2022-08-29T00:48:19.873Z,15.62
2022-08-29T00:50:52.379Z,15.56
2022-08-29T00:53:35.619Z,15.55
2022-08-29T00:56:05.573Z,15.49
2022-08-29T00:58:41.356Z,15.52
2022-08-29T01:01:10.324Z,15.47
2022-08-29T01:03:42.694Z,15.45
2022-08-29T01:06:13.641Z,15.41
2022-08-29T01:08:42.746Z,15.36
2022-08-29T01:11:29.737Z,15.40
2022-08-29T01:14:01.287Z,15.36
2022-08-29T01:16:31.539Z,15.37
2022-08-29T01:19:04.856Z,15.47
2022-08-29T01:21:40.962Z,15.46
2022-08-29T01:24:15.191Z,15.43
2022-08-29T01:26:47.374Z,15.41
2022-08-29T01:29:16.706Z,15.45
2022-08-29T01:31:57.004Z,15.42
2022-08-29T01:34:28.729Z,15.39
2022-08-29T01:36:59.912Z,15.38
2022-08-29T01:39:30.856Z,15.38
2022-08-29T01:42:03.900Z,15.34
2022-08-29T01:44:32.672Z,15.36
2022-08-29T01:47:03.388Z,15.39
2022-08-29T01:49:33.030Z,15.36
2022-08-29T01:52:02.298Z,15.33
2022-08-29T01:54:31.634Z,15.28
2022-08-29T01:57:02.554Z,15.29
2022-08-29T01:59:32.056Z,15.24
2022-08-29T02:02:03.856Z,15.21
2022-08-29T02:04:32.908Z,15.25
2022-08-29T02:07:01.353Z,15.21
2022-08-29T02:09:30.354Z,15.23
2022-08-29T02:11:59.490Z,15.26
2022-08-29T02:14:29.996Z,15.29
2022-08-29T02:16:58.313Z,15.26
2022-08-29T02:19:26.705Z,15.21
2022-08-29T02:21:57.045Z,15.23
2022-08-29T02:24:26.456Z,15.23
2022-08-29T02:26:56.288Z,15.26
2022-08-29T02:29:25.821Z,15.21
2022-08-29T02:32:00.477Z,15.22
2022-08-29T02:34:31.044Z,15.19
2022-08-29T02:37:00.351Z,15.23
2022-08-29T02:39:28.662Z,15.18
2022-08-29T02:41:56.938Z,15.22
2022-08-29T02:44:25.417Z,15.23
2022-08-29T02:46:53.832Z,15.18
2022-08-29T02:49:23.827Z,15.17
2022-08-29T02:51:52.127Z,15.11
2022-08-29T02:54:20.500Z,15.08
2022-08-29T02:56:48.840Z,15.13
2022-08-29T02:59:17.185Z,15.08
2022-08-29T03:01:45.572Z,15.07
2022-08-29T03:04:14.265Z,15.06
2022-08-29T03:06:43.939Z,15.02
2022-08-29T03:09:12.237Z,14.94
2022-08-29T03:11:40.517Z,14.91
2022-08-29T03:14:08.919Z,14.91
2022-08-29T03:16:37.810Z,14.95
2022-08-29T03:19:06.699Z,14.89
2022-08-29T03:21:34.979Z,14.81
2022-08-29T03:24:05.583Z,14.85
2022-08-29T03:26:34.015Z,14.88
2022-08-29T03:29:02.404Z,14.84
2022-08-29T03:31:30.780Z,14.87
2022-08-29T03:33:59.114Z,14.82
2022-08-29T03:36:28.151Z,14.85
2022-08-29T03:38:56.643Z,14.85
2022-08-29T03:41:29.672Z,14.85
2022-08-29T03:43:58.950Z,14.83
2022-08-29T03:46:28.324Z,14.91
2022-08-29T03:48:56.711Z,14.88
2022-08-29T03:51:29.213Z,14.83
2022-08-29T03:53:58.039Z,14.89
2022-08-29T03:56:27.759Z,14.88
2022-08-29T03:58:56.237Z,14.84
2022-08-29T04:01:29.463Z,14.84
2022-08-29T04:03:59.655Z,14.85
2022-08-29T04:06:29.363Z,14.79
2022-08-29T04:08:59.121Z,14.75
2022-08-29T04:11:29.874Z,14.75
2022-08-29T04:13:58.253Z,14.81
2022-08-29T04:16:30.760Z,14.78
2022-08-29T04:18:59.774Z,14.80
2022-08-29T04:21:28.088Z,14.70
2022-08-29T04:23:56.468Z,14.71
2022-08-29T04:26:36.728Z,14.65
2022-08-29T04:29:08.104Z,14.64
2022-08-29T04:31:37.103Z,14.56
2022-08-29T04:34:07.217Z,14.53
2022-08-29T04:36:35.737Z,14.56
2022-08-29T04:39:04.803Z,14.57
2022-08-29T04:41:33.435Z,14.58
2022-08-29T04:44:02.493Z,14.60
2022-08-29T04:46:32.924Z,14.56
2022-08-29T04:49:04.199Z,14.52
2022-08-29T04:51:34.441Z,14.50
2022-08-29T04:54:03.915Z,14.48
2022-08-29T04:56:32.406Z,14.54
2022-08-29T04:59:00.711Z,14.56
2022-08-29T05:01:29.106Z,14.49
2022-08-29T05:03:59.189Z,14.49
2022-08-29T05:06:28.419Z,14.48
2022-08-29T05:08:59.810Z,14.48
2022-08-29T05:11:29.737Z,14.54
2022-08-29T05:13:58.509Z,14.59
2022-08-29T05:16:27.044Z,14.59
2022-08-29T05:18:55.326Z,14.63
2022-08-29T05:21:35.114Z,14.63
2022-08-29T05:24:04.579Z,14.63
2022-08-29T05:26:34.496Z,14.67
2022-08-29T05:29:02.750Z,14.70
2022-08-29T05:31:34.161Z,14.77
2022-08-29T05:34:02.486Z,14.71
2022-08-29T05:36:52.172Z,14.67
2022-08-29T05:39:20.826Z,14.75
2022-08-29T05:41:49.189Z,14.80
2022-08-29T05:44:17.495Z,14.84
2022-08-29T05:46:45.802Z,14.92
2022-08-29T05:49:14.906Z,14.93
2022-08-29T05:51:43.594Z,14.88
2022-08-29T05:54:13.699Z,14.93
2022-08-29T05:56:42.979Z,14.94
2022-08-29T05:59:12.648Z,14.95
2022-08-29T06:01:41.457Z,14.93
2022-08-29T06:04:10.164Z,15.02
2022-08-29T06:06:38.698Z,15.12
2022-08-29T06:09:07.373Z,15.15
2022-08-29T06:11:36.996Z,15.15
2022-08-29T06:14:05.521Z,15.33
2022-08-29T06:16:34.314Z,15.30
2022-08-29T06:19:02.691Z,15.40
2022-08-29T06:21:31.518Z,15.39
2022-08-29T06:23:59.926Z,15.46
2022-08-29T06:26:28.540Z,15.54
2022-08-29T06:28:58.281Z,15.44
2022-08-29T06:31:29.578Z,15.45
2022-08-29T06:34:00.245Z,15.41
2022-08-29T06:36:29.996Z,15.42
2022-08-29T06:38:59.760Z,15.38
2022-08-29T06:41:28.874Z,15.39
2022-08-29T06:44:02.554Z,15.46
2022-08-29T06:46:33.376Z,15.45
2022-08-29T06:49:03.142Z,15.41
2022-08-29T06:51:33.296Z,15.65
2022-08-29T06:54:02.202Z,15.76
2022-08-29T06:56:31.023Z,15.87
2022-08-29T06:58:59.497Z,15.81
2022-08-29T07:01:29.477Z,15.75
2022-08-29T07:03:58.663Z,15.85
2022-08-29T07:06:27.692Z,15.90
2022-08-29T07:08:56.533Z,15.86
2022-08-29T07:11:25.280Z,15.93
2022-08-29T07:13:53.683Z,16.11
2022-08-29T07:16:23.039Z,16.36
2022-08-29T07:18:52.776Z,16.50
2022-08-29T07:21:24.189Z,16.55
2022-08-29T07:23:54.163Z,16.60
2022-08-29T07:26:25.278Z,16.59
2022-08-29T07:28:56.724Z,16.64
2022-08-29T07:31:27.285Z,16.90
2022-08-29T07:34:02.768Z,17.02
2022-08-29T07:36:31.835Z,17.02
2022-08-29T07:39:00.158Z,16.87
2022-08-29T07:41:28.707Z,16.92
2022-08-29T07:43:57.060Z,16.93
2022-08-29T07:46:26.990Z,17.08
2022-08-29T07:48:55.489Z,17.30
2022-08-29T07:51:25.373Z,17.51
2022-08-29T07:53:55.122Z,17.50
2022-08-29T07:56:26.728Z,17.61
2022-08-29T07:58:55.655Z,17.77
2022-08-29T08:01:24.859Z,17.83
2022-08-29T08:03:53.825Z,17.96
2022-08-29T08:06:27.173Z,18.10
2022-08-29T08:08:56.523Z,18.21
2022-08-29T08:11:27.573Z,18.39
2022-08-29T08:13:57.551Z,18.44
2022-08-29T08:16:27.943Z,18.54
2022-08-29T08:18:57.822Z,18.57
2022-08-29T08:21:28.012Z,18.55
2022-08-29T08:23:56.510Z,18.51
2022-08-29T08:26:25.266Z,18.48
2022-08-29T08:28:55.213Z,18.54
2022-08-29T08:31:24.433Z,18.53
2022-08-29T08:33:53.098Z,18.59
2022-08-29T08:36:24.432Z,18.44
2022-08-29T08:38:55.557Z,18.38
2022-08-29T08:41:36.409Z,18.19
2022-08-29T08:44:07.538Z,18.27
2022-08-29T08:46:41.027Z,18.43
2022-08-29T08:49:17.251Z,18.53
2022-08-29T08:51:51.415Z,18.59
2022-08-29T08:54:25.394Z,18.89
2022-08-29T08:57:02.118Z,19.23
2022-08-29T08:59:39.473Z,19.17
2022-08-29T09:02:18.143Z,19.50
2022-08-29T09:05:03.176Z,19.65
2022-08-29T09:07:48.999Z,19.80
2022-08-29T09:10:30.490Z,20.11
2022-08-29T09:13:05.317Z,20.05
2022-08-29T09:15:40.201Z,20.05
2022-08-29T09:18:13.554Z,20.11
2022-08-29T09:20:43.429Z,20.22
2022-08-29T09:23:21.323Z,20.28
2022-08-29T09:25:52.320Z,20.40
2022-08-29T09:28:20.937Z,20.54
2022-08-29T09:31:21.151Z,20.36
2022-08-29T09:33:52.716Z,20.61
2022-08-29T09:36:42.834Z,20.60
2022-08-29T09:39:20.655Z,20.84
2022-08-29T09:41:52.961Z,20.96
2022-08-29T09:44:26.548Z,21.02
2022-08-29T09:47:10.449Z,20.91
2022-08-29T09:49:40.658Z,20.88
2022-08-29T09:52:12.620Z,21.05
2022-08-29T09:54:41.436Z,20.88
2022-08-29T09:57:21.251Z,21.09
2022-08-29T09:59:51.561Z,21.10
2022-08-29T10:02:24.178Z,21.00
2022-08-29T10:04:55.611Z,21.09
2022-08-29T10:07:26.089Z,21.23
2022-08-29T10:09:57.710Z,21.51
2022-08-29T10:12:34.864Z,21.74
2022-08-29T10:15:07.337Z,21.48
2022-08-29T10:17:58.999Z,21.21
2022-08-29T10:20:38.067Z,21.63
2022-08-29T10:23:13.318Z,21.77
2022-08-29T10:25:42.536Z,21.84
2022-08-29T10:28:23.164Z,21.92
2022-08-29T10:30:57.230Z,22.03
2022-08-29T10:33:35.659Z,21.97
2022-08-29T10:36:14.120Z,21.97
2022-08-29T10:38:48.818Z,21.91
2022-08-29T10:41:28.962Z,21.98
2022-08-29T10:44:08.041Z,22.26
2022-08-29T10:46:49.870Z,22.54
2022-08-29T10:49:30.220Z,22.57
2022-08-29T10:52:06.003Z,22.57
2022-08-29T10:54:44.556Z,22.48
2022-08-29T10:57:17.444Z,22.41
2022-08-29T10:59:59.090Z,22.47
2022-08-29T11:02:33.814Z,22.76
2022-08-29T11:05:08.419Z,22.97
2022-08-29T11:07:43.360Z,23.15
2022-08-29T11:10:17.725Z,23.03
2022-08-29T11:12:51.701Z,22.97
2022-08-29T11:15:27.493Z,23.28
2022-08-29T11:18:03.015Z,23.32
2022-08-29T11:20:36.155Z,23.57
2022-08-29T11:23:09.461Z,23.71
2022-08-29T11:25:41.853Z,23.06
2022-08-29T11:28:18.228Z,23.29
2022-08-29T11:30:55.985Z,23.67
2022-08-29T11:33:36.183Z,23.56
2022-08-29T11:36:27.186Z,23.83
2022-08-29T11:39:29.421Z,23.52
2022-08-29T11:42:01.894Z,23.38
2022-08-29T11:44:34.946Z,22.94
2022-08-29T11:47:40.481Z,23.47
2022-08-29T11:50:28.946Z,23.67
2022-08-29T11:53:02.335Z,23.85
2022-08-29T11:55:34.212Z,23.64
2022-08-29T11:58:46.169Z,23.58
2022-08-29T12:02:00.609Z,23.86
2022-08-29T12:04:57.149Z,23.92
2022-08-29T12:07:35.840Z,23.62
2022-08-29T12:10:08.727Z,24.05
2022-08-29T12:12:46.665Z,24.27
2022-08-29T12:15:59.499Z,24.32
2022-08-29T12:18:50.766Z,23.90
2022-08-29T12:21:45.664Z,24.09
2022-08-29T12:24:43.016Z,24.01
2022-08-29T12:27:26.744Z,24.35
2022-08-29T12:29:55.272Z,24.28
2022-08-29T12:32:40.989Z,24.35
2022-08-29T12:35:33.328Z,24.01
2022-08-29T12:38:18.126Z,24.09
2022-08-29T12:40:57.312Z,24.16
2022-08-29T12:43:33.871Z,24.11
2022-08-29T12:46:04.634Z,24.59
2022-08-29T12:48:40.389Z,24.47
2022-08-29T12:51:09.674Z,24.72
2022-08-29T12:53:39.831Z,24.26
2022-08-29T12:56:16.897Z,24.35
2022-08-29T12:58:47.827Z,24.39
2022-08-29T13:01:24.941Z,24.57
2022-08-29T13:03:58.271Z,24.46
2022-08-29T13:06:27.166Z,24.10
2022-08-29T13:08:56.800Z,24.14
2022-08-29T13:11:28.080Z,24.54
2022-08-29T13:14:08.660Z,24.65
2022-08-29T13:16:38.027Z,24.71
2022-08-29T13:19:11.175Z,24.89
2022-08-29T13:21:40.095Z,24.55
2022-08-29T13:24:14.284Z,24.60
2022-08-29T13:27:05.569Z,24.38
2022-08-29T13:29:38.660Z,24.66
2022-08-29T13:32:12.930Z,24.34
2022-08-29T13:35:01.035Z,24.03
2022-08-29T13:37:32.054Z,24.43
2022-08-29T13:40:30.773Z,24.69
2022-08-29T13:43:00.119Z,24.68
2022-08-29T13:45:29.149Z,25.02
2022-08-29T13:48:18.502Z,25.28
2022-08-29T13:53:20.854Z,25.96
2022-08-29T13:55:50.695Z,25.75
2022-08-29T13:58:22.551Z,25.83
2022-08-29T14:00:51.453Z,25.92
2022-08-29T14:03:20.461Z,25.63
2022-08-29T14:05:48.956Z,25.80
2022-08-29T14:08:18.090Z,26.23
2022-08-29T14:10:46.581Z,26.43
2022-08-29T14:13:18.922Z,26.09
2022-08-29T14:15:47.500Z,26.11
2022-08-29T14:18:16.906Z,25.97
2022-08-29T14:20:45.276Z,25.92
2022-08-29T14:23:13.754Z,26.50
2022-08-29T14:25:42.200Z,27.05
2022-08-29T14:28:10.607Z,27.17
2022-08-29T14:30:49.906Z,27.20
2022-08-29T14:33:22.395Z,27.35
2022-08-29T14:35:51.262Z,27.50
2022-08-29T14:38:19.857Z,27.07
2022-08-29T14:40:48.323Z,26.77
2022-08-29T14:43:17.071Z,28.26
2022-08-29T14:45:46.846Z,28.01
2022-08-29T14:48:15.863Z,28.20
2022-08-29T14:50:44.306Z,28.15
2022-08-29T14:53:12.648Z,28.76
2022-08-29T14:55:41.009Z,28.71
2022-08-29T14:58:09.350Z,29.16
2022-08-29T15:00:37.716Z,28.69
2022-08-29T15:03:07.472Z,28.82
2022-08-29T15:05:35.963Z,29.07
2022-08-29T15:08:06.814Z,28.38
2022-08-29T15:10:35.296Z,28.86
2022-08-29T15:13:05.187Z,28.70
2022-08-29T15:15:33.497Z,29.06
2022-08-29T15:18:05.369Z,29.24
2022-08-29T15:20:37.725Z,28.84
2022-08-29T15:23:08.480Z,28.79
2022-08-29T15:25:37.290Z,29.06
2022-08-29T15:28:06.884Z,28.28
2022-08-29T15:30:35.770Z,27.68
2022-08-29T15:33:04.349Z,27.37
2022-08-29T15:35:34.085Z,27.70
2022-08-29T15:38:02.735Z,28.70
2022-08-29T15:40:31.131Z,27.40
2022-08-29T15:42:59.509Z,26.87
2022-08-29T15:45:28.138Z,26.82
2022-08-29T15:47:59.735Z,26.58
2022-08-29T15:50:28.648Z,27.09
2022-08-29T15:52:58.288Z,27.63
2022-08-29T15:55:26.484Z,28.37
2022-08-29T15:57:54.943Z,27.98
2022-08-29T16:00:30.179Z,27.00
2022-08-29T16:03:02.849Z,25.72
2022-08-29T16:05:32.805Z,25.02
2022-08-29T16:08:02.888Z,24.05
2022-08-29T16:10:31.662Z,23.82
2022-08-29T16:13:00.198Z,23.55
2022-08-29T16:15:31.027Z,23.11
2022-08-29T16:18:00.304Z,23.13
2022-08-29T16:20:29.197Z,23.06
2022-08-29T16:22:57.924Z,23.53
2022-08-29T16:25:28.415Z,23.42
2022-08-29T16:27:57.294Z,23.38
2022-08-29T16:30:25.634Z,23.76
2022-08-29T16:32:54.809Z,24.03
2022-08-29T16:35:24.149Z,23.67
2022-08-29T16:38:03.068Z,24.26
2022-08-29T16:40:33.585Z,26.02
2022-08-29T16:43:02.788Z,26.87
2022-08-29T16:45:32.582Z,27.36
2022-08-29T16:48:01.362Z,27.59
2022-08-29T16:50:32.611Z,27.35
2022-08-29T16:53:01.763Z,28.21
2022-08-29T16:55:30.978Z,27.06
2022-08-29T16:58:18.346Z,26.69
2022-08-29T17:00:46.685Z,25.97
2022-08-29T17:03:19.949Z,24.91
2022-08-29T17:05:50.098Z,23.85
2022-08-29T17:08:17.495Z,23.27
2022-08-29T17:10:44.761Z,22.72
2022-08-29T17:13:13.458Z,22.40
2022-08-29T17:15:41.117Z,22.19
2022-08-29T17:18:10.034Z,22.08
2022-08-29T17:20:38.465Z,21.95
2022-08-29T17:23:10.379Z,21.81
2022-08-29T17:25:39.572Z,21.88
2022-08-29T17:28:17.672Z,21.81
2022-08-29T17:30:48.933Z,21.62
2022-08-29T17:33:18.100Z,21.59
2022-08-29T17:35:47.008Z,21.54
2022-08-29T17:38:16.728Z,21.44
2022-08-29T17:40:46.130Z,21.46
2022-08-29T17:43:18.410Z,21.44
2022-08-29T17:45:49.416Z,21.33
2022-08-29T17:48:18.022Z,21.30
2022-08-29T17:50:46.789Z,21.24
2022-08-29T17:53:15.160Z,21.10
2022-08-29T17:55:43.672Z,21.07
2022-08-29T17:58:12.481Z,21.00
2022-08-29T18:00:41.387Z,20.95
2022-08-29T18:03:11.165Z,20.87
2022-08-29T18:05:39.836Z,20.78
2022-08-29T18:08:08.410Z,20.75
2022-08-29T18:10:37.343Z,20.66
2022-08-29T18:13:05.851Z,20.58
2022-08-29T18:15:35.550Z,20.56
2022-08-29T18:18:04.558Z,20.49
2022-08-29T18:20:34.376Z,20.36
2022-08-29T18:23:02.678Z,20.26
2022-08-29T18:25:31.140Z,20.16
2022-08-29T18:28:00.184Z,20.10
2022-08-29T18:30:28.676Z,20.01
2022-08-29T18:32:56.990Z,19.95
2022-08-29T18:35:25.751Z,19.90
2022-08-29T18:37:55.724Z,19.85
2022-08-29T18:40:25.127Z,19.77
2022-08-29T18:42:53.844Z,19.75
2022-08-29T18:45:22.155Z,19.69
2022-08-29T18:47:50.556Z,19.62
2022-08-29T18:50:37.272Z,19.61
2022-08-29T18:53:10.754Z,19.57
2022-08-29T18:55:40.055Z,19.47
2022-08-29T18:58:08.930Z,19.43
2022-08-29T19:00:38.428Z,19.41
2022-08-29T19:03:07.079Z,19.36
2022-08-29T19:05:39.101Z,19.38
2022-08-29T19:08:11.699Z,19.31
2022-08-29T19:10:40.331Z,19.28
2022-08-29T19:13:09.186Z,19.26
2022-08-29T19:15:41.416Z,19.27
2022-08-29T19:18:11.548Z,19.22
2022-08-29T19:20:57.710Z,19.17
2022-08-29T19:23:27.771Z,19.20
2022-08-29T19:25:56.375Z,19.21
2022-08-29T19:28:24.969Z,19.18
2022-08-29T19:30:53.592Z,19.16
2022-08-29T19:33:21.992Z,19.12
2022-08-29T19:35:53.652Z,19.15
2022-08-29T19:38:23.766Z,19.01
2022-08-29T19:40:56.547Z,18.99
2022-08-29T19:43:27.429Z,18.96
2022-08-29T19:45:57.490Z,18.96
2022-08-29T19:48:28.483Z,18.92
2022-08-29T19:50:56.979Z,18.98
2022-08-29T19:53:26.901Z,19.01
2022-08-29T19:55:57.555Z,18.98
2022-08-29T19:58:31.650Z,18.93
2022-08-29T20:01:02.456Z,18.91
2022-08-29T20:03:32.207Z,18.94
2022-08-29T20:06:05.732Z,18.92
2022-08-29T20:08:36.615Z,18.89
2022-08-29T20:11:06.904Z,18.92
2022-08-29T20:13:36.379Z,18.89
2022-08-29T20:16:12.132Z,18.93
2022-08-29T20:18:41.457Z,18.87
2022-08-29T20:21:10.527Z,18.84
2022-08-29T20:23:41.481Z,18.83
2022-08-29T20:26:21.109Z,18.73
2022-08-29T20:28:51.637Z,18.74
2022-08-29T20:31:20.660Z,18.69
2022-08-29T20:33:49.285Z,18.68
2022-08-29T20:36:38.592Z,18.65
2022-08-29T20:39:09.203Z,18.64
2022-08-29T20:41:39.340Z,18.53
2022-08-29T20:44:09.944Z,18.44
2022-08-29T20:46:40.731Z,18.39
2022-08-29T20:49:10.008Z,18.33
2022-08-29T20:51:39.102Z,18.26
2022-08-29T20:54:07.828Z,18.21
2022-08-29T20:56:36.208Z,18.12
2022-08-29T20:59:06.331Z,18.08
2022-08-29T21:01:36.081Z,18.07
2022-08-29T21:04:24.076Z,18.02
2022-08-29T21:06:55.826Z,17.92
2022-08-29T21:09:25.087Z,17.92
2022-08-29T21:11:54.341Z,17.83
2022-08-29T21:14:24.235Z,17.83
2022-08-29T21:16:53.551Z,17.77
2022-08-29T21:19:22.778Z,17.74
2022-08-29T21:21:51.522Z,17.67
2022-08-29T21:24:21.275Z,17.72
2022-08-29T21:26:50.533Z,17.68
2022-08-29T21:29:20.221Z,17.70
2022-08-29T21:31:51.146Z,17.72
2022-08-29T21:34:19.871Z,17.67
2022-08-29T21:36:48.283Z,17.67
2022-08-29T21:39:28.169Z,17.69
2022-08-29T21:42:01.452Z,17.70
2022-08-29T21:44:31.690Z,17.73
2022-08-29T21:47:02.011Z,17.73
2022-08-29T21:49:31.433Z,17.67
2022-08-29T21:52:00.453Z,17.63
2022-08-29T21:54:29.378Z,17.60
2022-08-29T21:56:57.728Z,17.60
2022-08-29T21:59:28.374Z,17.55
2022-08-29T22:01:57.210Z,17.54
2022-08-29T22:04:28.306Z,17.47
2022-08-29T22:06:57.715Z,17.52
2022-08-29T22:09:26.634Z,17.51
2022-08-29T22:11:55.335Z,17.46
2022-08-29T22:14:43.833Z,17.49
2022-08-29T22:17:11.323Z,17.55
2022-08-29T22:19:41.849Z,17.54
2022-08-29T22:22:10.746Z,17.54
2022-08-29T22:24:39.162Z,17.59
2022-08-29T22:27:07.762Z,17.56
2022-08-29T22:29:37.123Z,17.52
2022-08-29T22:32:05.691Z,17.49
2022-08-29T22:34:34.313Z,17.45
2022-08-29T22:37:04.161Z,17.47
2022-08-29T22:39:32.638Z,17.40
2022-08-29T22:42:01.156Z,17.39
2022-08-29T22:45:01.785Z,17.35
2022-08-29T22:47:19.068Z,17.34
2022-08-29T22:49:47.367Z,17.26
2022-08-29T22:52:17.050Z,17.22
2022-08-29T22:54:45.530Z,17.18
2022-08-29T22:57:15.897Z,17.24
2022-08-29T22:59:45.239Z,17.20
2022-08-29T23:02:14.552Z,17.19
2022-08-29T23:04:43.369Z,17.10
2022-08-29T23:07:12.118Z,17.09
2022-08-29T23:09:42.673Z,17.13
2022-08-29T23:12:12.229Z,17.07
2022-08-29T23:14:42.066Z,17.02
2022-08-29T23:17:10.992Z,17.02
2022-08-29T23:19:41.264Z,16.98
2022-08-29T23:22:10.947Z,16.94
2022-08-29T23:24:53.930Z,17.01
2022-08-29T23:27:28.356Z,16.98
2022-08-29T23:29:57.156Z,17.03
2022-08-29T23:32:25.698Z,17.07
2022-08-29T23:34:54.238Z,17.06
2022-08-29T23:37:22.594Z,17.15
2022-08-29T23:39:52.696Z,17.16
2022-08-29T23:42:21.077Z,17.17
2022-08-29T23:44:49.654Z,17.22
2022-08-29T23:47:18.872Z,17.21
2022-08-29T23:49:47.396Z,17.24
2022-08-29T23:52:15.811Z,17.26
2022-08-29T23:54:44.156Z,17.23
2022-08-29T23:57:14.200Z,17.28
2022-08-29T23:59:59.896Z,17.26
